createdAt,value
2019-06-15T00:02:18.868Z,100175.63
2019-06-15T00:04:49.282Z,100172.61
2019-06-15T00:07:19.730Z,100169.49
2019-06-15T00:09:50.163Z,100167.83
2019-06-15T00:12:20.641Z,100158.82
2019-06-15T00:14:51.014Z,100162.23
2019-06-15T00:17:21.582Z,100150.88
2019-06-15T00:19:51.986Z,100152.45
2019-06-15T00:22:22.425Z,100155.71
2019-06-15T00:24:53.029Z,100148.48
2019-06-15T00:27:23.741Z,100151.66
2019-06-15T00:29:54.170Z,100150.57
2019-06-15T00:32:24.508Z,100156.91
2019-06-15T00:34:54.945Z,100156.35
2019-06-15T00:37:25.314Z,100154.57
2019-06-15T00:39:55.661Z,100157.33
2019-06-15T00:42:26.356Z,100145.67
2019-06-15T00:44:56.844Z,100153.68
2019-06-15T00:47:27.280Z,100157.07
2019-06-15T00:49:57.905Z,100149.13
2019-06-15T00:52:28.234Z,100152.93
2019-06-15T00:54:58.546Z,100152.48
2019-06-15T00:57:28.997Z,100151.09
2019-06-15T01:00:01.908Z,100152.48
2019-06-15T01:02:32.311Z,100160.88
2019-06-15T01:05:02.780Z,100158.64
2019-06-15T01:07:33.401Z,100160.95
2019-06-15T01:10:03.852Z,100164.44
2019-06-15T01:12:34.323Z,100168.83
2019-06-15T01:15:04.975Z,100167.89
2019-06-15T01:17:35.765Z,100174.72
2019-06-15T01:20:06.632Z,100167.48
2019-06-15T01:22:37.363Z,100162.80
2019-06-15T01:25:09.234Z,100168.17
2019-06-15T01:27:40.170Z,100166.53
2019-06-15T01:30:11.720Z,100167.45
2019-06-15T01:32:42.146Z,100173.11
2019-06-15T01:35:12.833Z,100168.20
2019-06-15T01:37:43.301Z,100175.36
2019-06-15T01:40:14.189Z,100173.19
2019-06-15T01:42:44.925Z,100169.75
2019-06-15T01:45:15.595Z,100173.22
2019-06-15T01:47:46.244Z,100164.66
2019-06-15T01:50:17.012Z,100167.59
2019-06-15T01:52:47.769Z,100164.66
2019-06-15T01:55:21.161Z,100171.99
2019-06-15T01:57:50.430Z,100173.86
2019-06-15T02:00:23.148Z,100176.06
2019-06-15T02:02:54.512Z,100172.72
2019-06-15T02:05:25.092Z,100176.18
2019-06-15T02:07:55.479Z,100185.84
2019-06-15T02:10:31.381Z,100181.02
2019-06-15T02:13:02.063Z,100188.05
2019-06-15T02:15:32.791Z,100185.63
2019-06-15T02:18:03.387Z,100181.20
2019-06-15T02:20:33.860Z,100187.86
2019-06-15T02:23:04.162Z,100200.39
2019-06-15T02:25:36.601Z,100186.53
2019-06-15T02:28:07.295Z,100177.58
2019-06-15T02:30:37.964Z,100196.48
2019-06-15T02:33:08.332Z,100204.10
2019-06-15T02:35:38.619Z,100200.58
2019-06-15T02:38:09.028Z,100197.20
2019-06-15T02:40:39.474Z,100211.34
2019-06-15T02:43:09.800Z,100203.70
2019-06-15T02:45:40.215Z,100210.36
2019-06-15T02:48:10.594Z,100204.14
2019-06-15T02:50:40.995Z,100201.27
2019-06-15T02:53:11.445Z,100190.64
2019-06-15T02:55:50.602Z,100192.59
2019-06-15T02:58:14.399Z,100204.02
2019-06-15T03:01:00.919Z,100190.05
2019-06-15T03:03:31.454Z,100197.83
2019-06-15T03:06:02.223Z,100196.22
2019-06-15T03:08:32.632Z,100202.34
2019-06-15T03:11:03.067Z,100196.30
2019-06-15T03:13:35.186Z,100196.56
2019-06-15T03:16:06.361Z,100207.60
2019-06-15T03:18:36.724Z,100198.48
2019-06-15T03:21:07.248Z,100197.82
2019-06-15T03:23:37.607Z,100193.34
2019-06-15T03:26:08.348Z,100184.03
2019-06-15T03:28:38.767Z,100179.97
2019-06-15T03:31:09.388Z,100186.64
2019-06-15T03:33:39.719Z,100208.48
2019-06-15T03:36:10.092Z,100193.98
2019-06-15T03:38:40.469Z,100194.13
2019-06-15T03:41:10.849Z,100196.06
2019-06-15T03:43:41.188Z,100197.27
2019-06-15T03:46:11.589Z,100197.45
2019-06-15T03:48:42.035Z,100195.31
2019-06-15T03:51:12.353Z,100190.34
2019-06-15T03:53:42.879Z,100200.48
2019-06-15T03:56:21.691Z,100198.86
2019-06-15T03:58:45.741Z,100198.13
2019-06-15T04:01:33.736Z,100197.98
2019-06-15T04:04:04.060Z,100189.18
2019-06-15T04:06:34.451Z,100194.88
2019-06-15T04:09:06.171Z,100215.98
2019-06-15T04:11:36.590Z,100221.91
2019-06-15T04:14:07.207Z,100217.39
2019-06-15T04:16:37.717Z,100216.34
2019-06-15T04:19:08.026Z,100228.92
2019-06-15T04:21:38.660Z,100223.53
2019-06-15T04:24:09.186Z,100230.92
2019-06-15T04:26:39.506Z,100231.61
2019-06-15T04:29:09.851Z,100229.17
2019-06-15T04:31:40.236Z,100234.56
2019-06-15T04:34:10.799Z,100228.06
2019-06-15T04:36:41.085Z,100255.05
2019-06-15T04:39:11.565Z,100241.59
2019-06-15T04:41:42.101Z,100230.93
2019-06-15T04:44:12.438Z,100246.53
2019-06-15T04:46:42.857Z,100233.13
2019-06-15T04:49:13.634Z,100245.52
2019-06-15T04:51:44.002Z,100237.96
2019-06-15T04:54:15.433Z,100241.48
2019-06-15T04:56:50.889Z,100237.14
2019-06-15T04:59:17.807Z,100262.23
2019-06-15T05:01:48.213Z,100249.22
2019-06-15T05:04:18.563Z,100247.51
2019-06-15T05:06:48.945Z,100253.35
2019-06-15T05:09:19.483Z,100263.95
2019-06-15T05:11:49.982Z,100254.70
2019-06-15T05:14:20.298Z,100257.66
2019-06-15T05:16:50.860Z,100256.53
2019-06-15T05:19:21.273Z,100263.86
2019-06-15T05:21:51.694Z,100256.17
2019-06-15T05:24:22.171Z,100265.97
2019-06-15T05:27:05.586Z,100263.41
2019-06-15T05:29:24.588Z,100263.67
2019-06-15T05:31:55.096Z,100273.23
2019-06-15T05:34:25.503Z,100270.20
2019-06-15T05:36:55.921Z,100268.20
2019-06-15T05:39:26.499Z,100270.45
2019-06-15T05:41:56.895Z,100280.01
2019-06-15T05:44:27.242Z,100275.47
2019-06-15T05:46:57.863Z,100268.38
2019-06-15T05:49:28.212Z,100270.04
2019-06-15T05:51:58.606Z,100265.60
2019-06-15T05:54:29.242Z,100272.70
2019-06-15T05:56:59.663Z,100275.77
2019-06-15T05:59:30.508Z,100278.44
2019-06-15T06:02:01.130Z,100281.94
2019-06-15T06:04:31.521Z,100296.91
2019-06-15T06:07:02.875Z,100289.27
2019-06-15T06:09:33.350Z,100294.95
2019-06-15T06:12:03.702Z,100284.63
2019-06-15T06:14:34.121Z,100288.56
2019-06-15T06:17:04.906Z,100279.65
2019-06-15T06:19:35.261Z,100281.79
2019-06-15T06:22:05.559Z,100283.57
2019-06-15T06:24:36.058Z,100273.12
2019-06-15T06:27:06.540Z,100291.90
2019-06-15T06:29:36.890Z,100290.09
2019-06-15T06:32:07.316Z,100284.56
2019-06-15T06:34:37.729Z,100278.94
2019-06-15T06:37:08.348Z,100281.09
2019-06-15T06:39:38.742Z,100268.67
2019-06-15T06:42:09.045Z,100279.80
2019-06-15T06:44:39.561Z,100282.13
2019-06-15T06:47:09.971Z,100273.36
2019-06-15T06:49:56.855Z,100289.36
2019-06-15T06:52:27.274Z,100298.78
2019-06-15T06:54:57.681Z,100292.49
2019-06-15T06:57:28.544Z,100291.49
2019-06-15T06:59:59.408Z,100298.98
2019-06-15T07:02:31.356Z,100292.12
2019-06-15T07:05:01.750Z,100289.03
2019-06-15T07:07:32.169Z,100292.69
2019-06-15T07:10:02.622Z,100292.81
2019-06-15T07:12:32.995Z,100295.98
2019-06-15T07:15:04.845Z,100281.52
2019-06-15T07:17:35.358Z,100291.87
2019-06-15T07:20:06.813Z,100278.41
2019-06-15T07:22:37.311Z,100278.22
2019-06-15T07:25:07.962Z,100280.00
2019-06-15T07:27:38.407Z,100269.06
2019-06-15T07:30:11.030Z,100309.84
2019-06-15T07:32:41.435Z,100287.79
2019-06-15T07:35:11.933Z,100295.89
2019-06-15T07:37:42.333Z,100301.97
2019-06-15T07:40:13.561Z,100290.61
2019-06-15T07:42:45.261Z,100301.45
2019-06-15T07:45:16.020Z,100306.44
2019-06-15T07:47:46.721Z,100308.50
2019-06-15T07:50:17.740Z,100307.29
2019-06-15T07:52:56.405Z,100302.28
2019-06-15T07:55:27.520Z,100310.37
2019-06-15T07:57:58.015Z,100309.00
2019-06-15T08:00:28.437Z,100312.53
2019-06-15T08:02:59.792Z,100322.23
2019-06-15T08:05:30.195Z,100313.14
2019-06-15T08:08:00.995Z,100319.92
2019-06-15T08:10:31.409Z,100316.92
2019-06-15T08:13:01.982Z,100311.11
2019-06-15T08:15:32.402Z,100325.04
2019-06-15T08:18:03.142Z,100325.13
2019-06-15T08:20:35.155Z,100323.23
2019-06-15T08:23:05.779Z,100321.28
2019-06-15T08:25:36.317Z,100324.12
2019-06-15T08:28:07.070Z,100321.55
2019-06-15T08:30:42.319Z,100312.98
2019-06-15T08:33:12.788Z,100321.08
2019-06-15T08:35:43.123Z,100321.42
2019-06-15T08:38:13.628Z,100322.11
2019-06-15T08:40:44.096Z,100326.40
2019-06-15T08:43:14.404Z,100322.64
2019-06-15T08:45:44.810Z,100317.02
2019-06-15T08:48:16.305Z,100320.36
2019-06-15T08:50:46.628Z,100322.48
2019-06-15T08:53:17.077Z,100329.08
2019-06-15T08:55:47.431Z,100322.34
2019-06-15T08:58:19.969Z,100323.73
2019-06-15T09:00:50.424Z,100333.08
2019-06-15T09:03:20.793Z,100344.87
2019-06-15T09:05:51.128Z,100318.24
2019-06-15T09:08:21.664Z,100326.61
2019-06-15T09:10:53.055Z,100328.30
2019-06-15T09:13:23.422Z,100330.42
2019-06-15T09:15:54.537Z,100317.64
2019-06-15T09:18:25.110Z,100320.62
2019-06-15T09:20:55.479Z,100317.20
2019-06-15T09:23:25.910Z,100313.94
2019-06-15T09:25:56.541Z,100308.96
2019-06-15T09:28:27.052Z,100318.13
2019-06-15T09:30:57.519Z,100316.78
2019-06-15T09:33:27.910Z,100328.20
2019-06-15T09:35:58.236Z,100331.63
2019-06-15T09:38:28.783Z,100327.64
2019-06-15T09:40:59.129Z,100334.14
2019-06-15T09:43:29.473Z,100330.70
2019-06-15T09:45:59.942Z,100324.38
2019-06-15T09:48:30.411Z,100331.92
2019-06-15T09:51:00.747Z,100322.56
2019-06-15T09:53:31.268Z,100328.11
2019-06-15T09:56:01.687Z,100321.24
2019-06-15T09:58:32.129Z,100334.82
2019-06-15T10:01:02.552Z,100317.05
2019-06-15T10:03:32.879Z,100342.97
2019-06-15T10:06:03.204Z,100317.23
2019-06-15T10:08:33.720Z,100313.00
2019-06-15T10:11:04.071Z,100316.53
2019-06-15T10:13:34.691Z,100324.95
2019-06-15T10:16:05.177Z,100317.73
2019-06-15T10:18:38.689Z,100330.84
2019-06-15T10:21:07.575Z,100330.11
2019-06-15T10:23:37.957Z,100329.73
2019-06-15T10:26:08.475Z,100320.22
2019-06-15T10:28:38.812Z,100310.22
2019-06-15T10:31:09.205Z,100315.14
2019-06-15T10:33:39.575Z,100319.88
2019-06-15T10:36:09.939Z,100324.73
2019-06-15T10:38:40.457Z,100316.06
2019-06-15T10:41:11.206Z,100303.00
2019-06-15T10:43:41.553Z,100309.54
2019-06-15T10:46:12.081Z,100310.47
2019-06-15T10:48:42.482Z,100314.14
2019-06-15T10:51:12.830Z,100307.64
2019-06-15T10:53:43.273Z,100319.09
2019-06-15T10:56:13.681Z,100315.26
2019-06-15T10:58:44.131Z,100308.82
2019-06-15T11:01:14.533Z,100299.92
2019-06-15T11:03:45.278Z,100294.06
2019-06-15T11:06:15.617Z,100304.00
2019-06-15T11:08:46.280Z,100295.15
2019-06-15T11:11:23.183Z,100289.36
2019-06-15T11:13:53.637Z,100292.97
2019-06-15T11:16:24.043Z,100283.27
2019-06-15T11:18:54.478Z,100280.30
2019-06-15T11:21:25.014Z,100279.92
2019-06-15T11:23:55.354Z,100296.45
2019-06-15T11:26:26.078Z,100281.95
2019-06-15T11:28:56.586Z,100293.73
2019-06-15T11:31:26.911Z,100283.45
2019-06-15T11:33:57.241Z,100282.31
2019-06-15T11:36:27.621Z,100273.81
2019-06-15T11:38:58.057Z,100270.00
2019-06-15T11:41:28.431Z,100280.31
2019-06-15T11:43:58.858Z,100269.70
2019-06-15T11:46:29.275Z,100273.48
2019-06-15T11:48:59.637Z,100263.78
2019-06-15T11:51:30.158Z,100264.53
2019-06-15T11:54:00.611Z,100264.02
2019-06-15T11:56:30.975Z,100257.52
2019-06-15T11:59:01.354Z,100259.52
2019-06-15T12:01:31.837Z,100252.28
2019-06-15T12:04:02.124Z,100246.52
2019-06-15T12:06:32.565Z,100253.27
2019-06-15T12:09:02.991Z,100255.56
2019-06-15T12:11:33.280Z,100247.73
2019-06-15T12:14:03.875Z,100248.75
2019-06-15T12:16:34.379Z,100242.04
2019-06-15T12:19:04.716Z,100241.44
2019-06-15T12:21:35.204Z,100237.34
2019-06-15T12:24:05.788Z,100239.94
2019-06-15T12:26:38.368Z,100233.31
2019-06-15T12:29:08.888Z,100224.99
2019-06-15T12:31:39.387Z,100231.88
2019-06-15T12:34:09.804Z,100222.78
2019-06-15T12:36:40.307Z,100219.61
2019-06-15T12:39:10.613Z,100215.90
2019-06-15T12:41:40.962Z,100203.05
2019-06-15T12:44:11.506Z,100203.50
2019-06-15T12:46:42.025Z,100200.95
2019-06-15T12:49:12.410Z,100205.14
2019-06-15T12:51:42.859Z,100199.01
2019-06-15T12:54:13.689Z,100208.05
2019-06-15T12:56:44.079Z,100202.91
2019-06-15T12:59:14.593Z,100199.83
2019-06-15T13:01:45.082Z,100205.88
2019-06-15T13:04:15.452Z,100208.86
2019-06-15T13:06:46.291Z,100205.05
2019-06-15T13:09:16.699Z,100208.27
2019-06-15T13:11:47.259Z,100207.38
2019-06-15T13:14:17.700Z,100206.23
2019-06-15T13:16:49.025Z,100202.87
2019-06-15T13:19:19.355Z,100202.13
2019-06-15T13:21:49.850Z,100201.67
2019-06-15T13:24:20.225Z,100202.73
2019-06-15T13:26:50.640Z,100200.27
2019-06-15T13:29:21.056Z,100195.86
2019-06-15T13:31:51.447Z,100195.86
2019-06-15T13:34:21.795Z,100203.50
2019-06-15T13:36:52.257Z,100193.70
2019-06-15T13:39:22.694Z,100198.42
2019-06-15T13:41:52.992Z,100188.23
2019-06-15T13:44:23.498Z,100190.95
2019-06-15T13:46:53.821Z,100194.75
2019-06-15T13:49:24.218Z,100183.94
2019-06-15T13:51:54.747Z,100178.23
2019-06-15T13:54:25.125Z,100189.16
2019-06-15T13:56:55.599Z,100179.28
2019-06-15T13:59:26.159Z,100184.08
2019-06-15T14:01:56.646Z,100189.59
2019-06-15T14:04:27.059Z,100170.69
2019-06-15T14:06:57.500Z,100174.45
2019-06-15T14:09:27.868Z,100167.66
2019-06-15T14:11:58.626Z,100165.38
2019-06-15T14:14:29.093Z,100161.36
2019-06-15T14:16:59.408Z,100169.14
2019-06-15T14:19:29.873Z,100165.61
2019-06-15T14:22:00.323Z,100166.16
2019-06-15T14:24:30.657Z,100156.75
2019-06-15T14:27:01.508Z,100158.20
2019-06-15T14:29:32.005Z,100159.28
2019-06-15T14:32:02.841Z,100144.78
2019-06-15T14:34:33.629Z,100146.98
2019-06-15T14:37:04.085Z,100155.63
2019-06-15T14:39:34.488Z,100168.46
2019-06-15T14:42:04.799Z,100164.39
2019-06-15T14:44:35.388Z,100166.69
2019-06-15T14:47:05.831Z,100160.73
2019-06-15T14:49:36.154Z,100163.41
2019-06-15T14:52:06.785Z,100165.53
2019-06-15T14:54:37.371Z,100158.12
2019-06-15T14:57:08.152Z,100155.72
2019-06-15T14:59:52.007Z,100151.11
2019-06-15T15:02:14.028Z,100144.39
2019-06-15T15:04:42.996Z,100143.88
2019-06-15T15:07:13.367Z,100147.08
2019-06-15T15:09:45.883Z,100150.77
2019-06-15T15:12:16.201Z,100151.19
2019-06-15T15:14:46.952Z,100154.99
2019-06-15T15:17:17.463Z,100161.70
2019-06-15T15:19:47.932Z,100163.66
2019-06-15T15:22:18.281Z,100167.91
2019-06-15T15:24:48.812Z,100165.80
2019-06-15T15:27:19.230Z,100169.60
2019-06-15T15:29:49.670Z,100161.95
2019-06-15T15:32:27.022Z,100171.81
2019-06-15T15:34:52.401Z,100167.98
2019-06-15T15:37:22.722Z,100162.69
2019-06-15T15:39:53.006Z,100162.34
2019-06-15T15:42:26.381Z,100163.06
2019-06-15T15:44:56.484Z,100160.66
2019-06-15T15:47:27.667Z,100157.42
2019-06-15T15:49:58.294Z,100152.17
2019-06-15T15:52:28.785Z,100152.61
2019-06-15T15:54:59.261Z,100158.66
2019-06-15T15:57:29.590Z,100157.59
2019-06-15T15:59:59.958Z,100157.01
2019-06-15T16:02:44.618Z,100164.72
2019-06-15T16:05:02.609Z,100164.61
2019-06-15T16:07:33.071Z,100172.09
2019-06-15T16:10:06.103Z,100175.22
2019-06-15T16:12:36.340Z,100171.30
2019-06-15T16:15:07.507Z,100167.61
2019-06-15T16:17:38.254Z,100169.78
2019-06-15T16:20:17.235Z,100171.45
2019-06-15T16:22:48.556Z,100175.04
2019-06-15T16:25:18.902Z,100162.75
2019-06-15T16:27:49.377Z,100162.61
2019-06-15T16:30:55.694Z,100164.63
2019-06-15T16:33:04.177Z,100169.81
2019-06-15T16:35:33.007Z,100176.63
2019-06-15T16:38:03.511Z,100179.75
2019-06-15T16:40:41.247Z,100187.69
2019-06-15T16:43:11.666Z,100186.63
2019-06-15T16:45:41.982Z,100186.92
2019-06-15T16:48:12.927Z,100192.37
2019-06-15T16:50:43.338Z,100196.98
2019-06-15T16:53:13.845Z,100196.15
2019-06-15T16:55:46.600Z,100196.34
2019-06-15T16:58:16.462Z,100199.07
2019-06-15T17:00:47.708Z,100214.20
2019-06-15T17:03:24.841Z,100215.37
2019-06-15T17:05:50.387Z,100209.69
2019-06-15T17:08:20.762Z,100207.84
2019-06-15T17:10:51.320Z,100210.42
2019-06-15T17:13:21.833Z,100211.06
2019-06-15T17:15:52.290Z,100204.48
2019-06-15T17:18:22.790Z,100200.09
2019-06-15T17:20:56.407Z,100197.72
2019-06-15T17:23:27.685Z,100195.47
2019-06-15T17:25:58.370Z,100203.72
2019-06-15T17:28:28.693Z,100203.06
2019-06-15T17:30:59.098Z,100195.33
2019-06-15T17:33:37.605Z,100194.19
2019-06-15T17:36:03.306Z,100190.57
2019-06-15T17:38:36.667Z,100190.44
2019-06-15T17:41:06.282Z,100195.57
2019-06-15T17:43:36.706Z,100187.91
2019-06-15T17:46:07.524Z,100191.91
2019-06-15T17:48:37.796Z,100197.66
2019-06-15T17:51:08.152Z,100193.88
2019-06-15T17:53:38.612Z,100200.28
2019-06-15T17:56:09.559Z,100199.03
2019-06-15T17:58:39.902Z,100200.67
2019-06-15T18:01:10.387Z,100204.66
2019-06-15T18:03:50.349Z,100205.00
2019-06-15T18:06:12.881Z,100201.19
2019-06-15T18:08:43.409Z,100200.48
2019-06-15T18:11:16.400Z,100207.67
2019-06-15T18:13:47.264Z,100204.77
2019-06-15T18:16:17.900Z,100206.84
2019-06-15T18:18:48.358Z,100203.23
2019-06-15T18:21:19.086Z,100212.78
2019-06-15T18:23:49.713Z,100212.59
2019-06-15T18:26:20.165Z,100211.23
2019-06-15T18:28:50.495Z,100212.78
2019-06-15T18:31:21.032Z,100210.53
2019-06-15T18:34:08.322Z,100200.41
2019-06-15T18:36:26.085Z,100208.14
2019-06-15T18:38:57.543Z,100215.03
2019-06-15T18:41:28.465Z,100216.29
2019-06-15T18:43:58.816Z,100212.25
2019-06-15T18:46:29.250Z,100209.60
2019-06-15T18:48:59.602Z,100212.25
2019-06-15T18:51:30.118Z,100217.83
2019-06-15T18:54:00.670Z,100207.67
2019-06-15T18:56:31.470Z,100213.39
2019-06-15T18:59:02.058Z,100213.02
2019-06-15T19:01:32.679Z,100218.30
2019-06-15T19:04:03.346Z,100221.00
2019-06-15T19:06:37.017Z,100227.84
2019-06-15T19:09:09.713Z,100227.34
2019-06-15T19:11:40.121Z,100229.57
2019-06-15T19:14:10.494Z,100232.30
2019-06-15T19:16:41.066Z,100233.99
2019-06-15T19:19:11.766Z,100226.23
2019-06-15T19:21:42.337Z,100224.86
2019-06-15T19:24:13.025Z,100219.84
2019-06-15T19:26:45.913Z,100221.69
2019-06-15T19:29:17.086Z,100219.16
2019-06-15T19:31:47.808Z,100220.30
2019-06-15T19:34:18.219Z,100211.60
2019-06-15T19:36:48.798Z,100212.85
2019-06-15T19:39:19.179Z,100211.80
2019-06-15T19:41:49.878Z,100208.94
2019-06-15T19:44:21.307Z,100211.36
2019-06-15T19:46:51.746Z,100208.63
2019-06-15T19:49:22.254Z,100198.31
2019-06-15T19:51:53.006Z,100197.26
2019-06-15T19:54:26.234Z,100201.84
2019-06-15T19:56:56.477Z,100205.52
2019-06-15T19:59:27.007Z,100207.86
2019-06-15T20:01:57.631Z,100209.08
2019-06-15T20:04:27.959Z,100210.59
2019-06-15T20:06:58.491Z,100204.26
2019-06-15T20:09:29.018Z,100200.70
2019-06-15T20:11:59.360Z,100202.47
2019-06-15T20:14:29.697Z,100206.85
2019-06-15T20:17:00.499Z,100197.78
2019-06-15T20:19:30.864Z,100194.42
2019-06-15T20:22:01.440Z,100196.69
2019-06-15T20:24:32.059Z,100197.69
2019-06-15T20:27:02.485Z,100196.83
2019-06-15T20:29:33.376Z,100191.92
2019-06-15T20:32:06.381Z,100187.92
2019-06-15T20:34:37.051Z,100188.19
2019-06-15T20:37:07.814Z,100195.99
2019-06-15T20:39:38.273Z,100194.59
2019-06-15T20:42:08.723Z,100192.27
2019-06-15T20:44:39.245Z,100193.81
2019-06-15T20:47:09.610Z,100184.87
2019-06-15T20:49:39.926Z,100174.66
2019-06-15T20:52:10.548Z,100178.36
2019-06-15T20:54:40.967Z,100172.83
2019-06-15T20:57:11.470Z,100171.75
2019-06-15T20:59:41.986Z,100170.92
2019-06-15T21:02:12.359Z,100168.85
2019-06-15T21:04:42.871Z,100169.29
2019-06-15T21:07:16.041Z,100160.86
2019-06-15T21:09:46.764Z,100158.20
2019-06-15T21:12:17.283Z,100149.69
2019-06-15T21:14:47.882Z,100146.59
2019-06-15T21:17:18.288Z,100143.25
2019-06-15T21:19:48.720Z,100138.95
2019-06-15T21:22:19.198Z,100135.72
2019-06-15T21:24:50.845Z,100134.05
2019-06-15T21:27:21.173Z,100140.28
2019-06-15T21:29:51.698Z,100130.25
2019-06-15T21:32:22.152Z,100135.27
2019-06-15T21:34:52.556Z,100130.59
2019-06-15T21:37:23.044Z,100126.06
2019-06-15T21:39:53.381Z,100124.88
2019-06-15T21:42:23.696Z,100124.16
2019-06-15T21:44:56.232Z,100122.33
2019-06-15T21:47:26.260Z,100118.91
2019-06-15T21:49:56.604Z,100117.20
2019-06-15T21:52:27.160Z,100120.24
2019-06-15T21:54:57.590Z,100122.16
2019-06-15T21:57:27.984Z,100120.05
2019-06-15T21:59:58.732Z,100126.97
2019-06-15T22:02:29.136Z,100126.59
2019-06-15T22:04:59.613Z,100122.97
2019-06-15T22:07:30.508Z,100120.34
2019-06-15T22:10:00.896Z,100124.06
2019-06-15T22:12:31.298Z,100123.23
2019-06-15T22:15:01.693Z,100119.48
2019-06-15T22:17:32.012Z,100117.52
2019-06-15T22:20:02.348Z,100131.75
2019-06-15T22:22:32.755Z,100123.11
2019-06-15T22:25:03.076Z,100121.14
2019-06-15T22:27:41.006Z,100119.13
2019-06-15T22:30:12.091Z,100123.89
2019-06-15T22:32:42.416Z,100118.75
2019-06-15T22:35:13.107Z,100114.23
2019-06-15T22:37:43.457Z,100114.11
2019-06-15T22:40:16.388Z,100112.41
2019-06-15T22:42:47.011Z,100118.84
2019-06-15T22:45:17.778Z,100102.78
2019-06-15T22:47:48.275Z,100116.20
2019-06-15T22:50:19.102Z,100111.20
2019-06-15T22:52:49.436Z,100122.58
2019-06-15T22:55:19.784Z,100123.17
2019-06-15T22:57:50.164Z,100122.73
2019-06-15T23:00:20.497Z,100125.20
2019-06-15T23:02:50.817Z,100123.23
2019-06-15T23:05:21.255Z,100124.55
2019-06-15T23:07:51.715Z,100123.91
2019-06-15T23:10:22.124Z,100115.27
2019-06-15T23:12:52.559Z,100120.93
2019-06-15T23:15:22.971Z,100118.81
2019-06-15T23:17:53.286Z,100119.68
2019-06-15T23:20:26.832Z,100122.23
2019-06-15T23:22:56.202Z,100115.48
2019-06-15T23:25:27.452Z,100112.33
2019-06-15T23:27:58.028Z,100108.45
2019-06-15T23:30:28.311Z,100100.84
2019-06-15T23:32:58.690Z,100098.30
2019-06-15T23:35:34.065Z,100089.28
2019-06-15T23:38:06.485Z,100088.78
2019-06-15T23:40:36.428Z,100087.40
2019-06-15T23:43:06.780Z,100082.02
2019-06-15T23:45:37.120Z,100087.44
2019-06-15T23:48:07.546Z,100084.56
2019-06-15T23:50:37.939Z,100092.80
2019-06-15T23:53:08.278Z,100091.40
2019-06-15T23:55:38.567Z,100089.76
2019-06-15T23:58:09.012Z,100081.34
